createdAt,value
2022-10-22T00:02:21.892Z,7.70
2022-10-22T00:04:54.023Z,7.50
2022-10-22T00:07:25.747Z,7.80
2022-10-22T00:09:57.145Z,7.30
2022-10-22T00:12:34.235Z,7.00
2022-10-22T00:15:07.158Z,7.30
2022-10-22T00:17:39.540Z,7.20
2022-10-22T00:20:13.518Z,7.00
2022-10-22T00:22:45.061Z,7.60
2022-10-22T00:25:20.317Z,7.40
2022-10-22T00:27:51.789Z,6.70
2022-10-22T00:30:23.402Z,7.20
2022-10-22T00:32:54.860Z,7.60
2022-10-22T00:35:26.849Z,7.30
2022-10-22T00:37:58.296Z,7.20
2022-10-22T00:40:29.790Z,7.30
2022-10-22T00:43:01.265Z,7.90
2022-10-22T00:45:33.237Z,7.40
2022-10-22T00:48:10.395Z,8.00
2022-10-22T00:50:47.442Z,6.90
2022-10-22T00:53:21.382Z,7.40
2022-10-22T00:58:28.667Z,6.70
2022-10-22T01:01:00.949Z,6.90
2022-10-22T01:03:34.157Z,7.20
2022-10-22T01:06:07.152Z,7.00
2022-10-22T01:08:52.011Z,6.70
2022-10-22T01:11:30.417Z,7.60
2022-10-22T01:14:14.414Z,7.90
2022-10-22T01:19:44.362Z,7.10
2022-10-22T01:22:21.905Z,7.10
2022-10-22T01:25:06.472Z,7.00
2022-10-22T01:27:54.960Z,8.40
2022-10-22T01:30:27.958Z,7.10
2022-10-22T01:33:04.731Z,7.00
2022-10-22T01:35:42.964Z,6.90
2022-10-22T01:38:20.214Z,8.00
2022-10-22T01:40:54.627Z,7.40
2022-10-22T01:43:26.459Z,7.40
2022-10-22T01:46:03.217Z,6.90
2022-10-22T01:48:45.530Z,7.10
2022-10-22T01:51:39.958Z,7.50
2022-10-22T01:54:23.964Z,7.60
2022-10-22T01:59:44.753Z,7.50
2022-10-22T02:02:30.738Z,7.50
2022-10-22T02:05:06.633Z,7.10
2022-10-22T02:07:43.847Z,7.60
2022-10-22T02:10:18.859Z,7.60
2022-10-22T02:12:54.823Z,7.00
2022-10-22T02:15:28.677Z,7.90
2022-10-22T02:18:01.441Z,7.70
2022-10-22T02:20:36.458Z,7.10
2022-10-22T02:23:09.954Z,7.10
2022-10-22T02:25:45.884Z,7.00
2022-10-22T02:28:25.771Z,7.70
2022-10-22T02:31:10.420Z,8.10
2022-10-22T02:33:46.804Z,8.70
2022-10-22T02:36:20.184Z,8.30
2022-10-22T02:38:53.683Z,7.80
2022-10-22T02:41:25.465Z,7.30
2022-10-22T02:43:58.107Z,8.20
2022-10-22T02:46:29.687Z,7.90
2022-10-22T02:49:01.185Z,7.00
2022-10-22T02:51:32.610Z,7.20
2022-10-22T02:54:04.240Z,8.00
2022-10-22T02:56:35.702Z,8.10
2022-10-22T02:59:07.251Z,7.20
2022-10-22T03:01:38.730Z,8.00
2022-10-22T03:04:10.317Z,7.30
2022-10-22T03:06:43.952Z,7.80
2022-10-22T03:09:18.153Z,8.90
2022-10-22T03:11:51.468Z,7.40
2022-10-22T03:14:23.111Z,7.00
2022-10-22T03:16:55.274Z,6.90
2022-10-22T03:19:28.863Z,8.50
2022-10-22T03:22:06.668Z,8.10
2022-10-22T03:24:42.236Z,7.90
2022-10-22T03:27:16.119Z,7.70
2022-10-22T03:29:47.981Z,7.60
2022-10-22T03:32:19.683Z,7.60
2022-10-22T03:34:51.203Z,8.20
2022-10-22T03:37:24.333Z,8.30
2022-10-22T03:39:56.688Z,8.50
2022-10-22T03:42:28.834Z,8.00
2022-10-22T03:45:00.206Z,8.90
2022-10-22T03:47:31.657Z,7.90
2022-10-22T03:50:03.235Z,9.10
2022-10-22T03:52:39.850Z,8.10
2022-10-22T03:55:13.134Z,8.00
2022-10-22T03:57:44.620Z,7.90
2022-10-22T04:00:17.425Z,7.80
2022-10-22T04:02:48.900Z,9.30
2022-10-22T04:05:20.402Z,8.90
2022-10-22T04:07:51.818Z,9.80
2022-10-22T04:10:23.284Z,9.50
2022-10-22T04:12:54.804Z,9.70
2022-10-22T04:15:29.390Z,9.00
2022-10-22T04:18:00.842Z,8.90
2022-10-22T04:20:32.236Z,9.70
2022-10-22T04:23:03.739Z,9.90
2022-10-22T04:25:35.210Z,8.40
2022-10-22T04:28:10.063Z,9.70
2022-10-22T04:30:41.588Z,10.40
2022-10-22T04:33:13.133Z,10.70
2022-10-22T04:35:44.648Z,10.50
2022-10-22T04:38:16.635Z,10.30
2022-10-22T04:40:48.103Z,9.20
2022-10-22T04:43:19.564Z,8.70
2022-10-22T04:45:51.020Z,8.80
2022-10-22T04:48:22.628Z,8.70
2022-10-22T04:50:54.006Z,9.00
2022-10-22T04:53:25.463Z,8.20
2022-10-22T04:55:56.966Z,8.70
2022-10-22T04:58:28.371Z,8.80
2022-10-22T05:01:00.857Z,8.90
2022-10-22T05:03:32.369Z,9.30
2022-10-22T05:06:04.899Z,9.00
2022-10-22T05:08:36.561Z,9.40
2022-10-22T05:11:15.651Z,8.90
2022-10-22T05:13:48.139Z,10.20
2022-10-22T05:16:19.584Z,9.80
2022-10-22T05:18:51.016Z,10.30
2022-10-22T05:21:23.793Z,9.50
2022-10-22T05:23:56.329Z,8.10
2022-10-22T05:26:29.636Z,8.90
2022-10-22T05:29:01.089Z,7.30
2022-10-22T05:31:32.704Z,7.90
2022-10-22T05:34:04.429Z,9.90
2022-10-22T05:36:35.952Z,9.30
2022-10-22T05:39:08.137Z,10.70
2022-10-22T05:41:39.754Z,10.90
2022-10-22T05:44:14.180Z,14.40
2022-10-22T05:46:46.892Z,16.40
2022-10-22T05:49:19.207Z,21.10
2022-10-22T05:51:50.748Z,21.70
2022-10-22T05:54:23.236Z,22.60
2022-10-22T05:56:56.296Z,23.90
2022-10-22T05:59:27.808Z,20.20
2022-10-22T06:01:59.231Z,17.90
2022-10-22T06:04:30.671Z,15.80
2022-10-22T06:07:03.063Z,14.50
2022-10-22T06:09:40.853Z,10.50
2022-10-22T06:12:13.831Z,10.90
2022-10-22T06:14:45.312Z,10.00
2022-10-22T06:17:19.722Z,8.80
2022-10-22T06:19:51.118Z,12.30
2022-10-22T06:22:22.526Z,10.10
2022-10-22T06:24:54.467Z,10.10
2022-10-22T06:27:25.964Z,9.40
2022-10-22T06:29:57.401Z,8.80
2022-10-22T06:32:28.778Z,8.70
2022-10-22T06:35:00.165Z,9.30
2022-10-22T06:37:31.676Z,8.20
2022-10-22T06:40:03.065Z,8.70
2022-10-22T06:42:34.662Z,8.60
2022-10-22T06:45:08.020Z,8.10
2022-10-22T06:47:40.213Z,7.70
2022-10-22T06:50:12.999Z,8.50
2022-10-22T06:52:44.604Z,7.90
2022-10-22T06:55:16.146Z,8.20
2022-10-22T06:57:47.550Z,7.80
2022-10-22T07:00:19.822Z,8.20
2022-10-22T07:02:57.696Z,8.10
2022-10-22T07:05:30.807Z,7.50
2022-10-22T07:08:02.306Z,7.70
2022-10-22T07:10:33.747Z,8.60
2022-10-22T07:13:05.301Z,8.70
2022-10-22T07:15:36.695Z,8.80
2022-10-22T07:18:08.337Z,8.30
2022-10-22T07:20:41.194Z,8.20
2022-10-22T07:23:12.642Z,8.30
2022-10-22T07:25:44.764Z,8.40
2022-10-22T07:28:16.268Z,8.30
2022-10-22T07:30:48.069Z,8.10
2022-10-22T07:33:19.542Z,8.50
2022-10-22T07:35:51.060Z,9.30
2022-10-22T07:38:22.489Z,8.30
2022-10-22T07:40:53.954Z,9.20
2022-10-22T07:43:25.504Z,8.10
2022-10-22T07:45:56.918Z,8.20
2022-10-22T07:48:28.546Z,7.90
2022-10-22T07:51:00.565Z,8.80
2022-10-22T07:53:32.249Z,8.20
2022-10-22T07:56:04.547Z,8.60
2022-10-22T07:58:36.710Z,8.90
2022-10-22T08:01:08.539Z,8.30
2022-10-22T08:03:40.337Z,8.50
2022-10-22T08:06:14.337Z,9.20
2022-10-22T08:08:46.745Z,8.50
2022-10-22T08:11:18.455Z,8.70
2022-10-22T08:13:49.839Z,8.90
2022-10-22T08:16:21.473Z,9.20
2022-10-22T08:18:53.344Z,8.90
2022-10-22T08:21:25.099Z,8.80
2022-10-22T08:23:56.700Z,8.50
2022-10-22T08:26:28.893Z,9.20
2022-10-22T08:29:00.392Z,9.20
2022-10-22T08:31:32.000Z,9.80
2022-10-22T08:34:05.686Z,8.90
2022-10-22T08:36:37.143Z,9.10
2022-10-22T08:39:08.619Z,8.50
2022-10-22T08:41:53.796Z,8.80
2022-10-22T08:44:50.123Z,8.80
2022-10-22T08:47:38.989Z,8.80
2022-10-22T08:50:17.895Z,8.70
2022-10-22T08:52:58.211Z,9.10
2022-10-22T08:55:36.515Z,9.00
2022-10-22T08:58:21.119Z,8.70
2022-10-22T09:01:00.903Z,8.30
2022-10-22T09:03:46.687Z,9.20
2022-10-22T09:06:23.067Z,9.30
2022-10-22T09:08:58.147Z,8.40
2022-10-22T09:11:34.476Z,8.70
2022-10-22T09:14:08.019Z,9.00
2022-10-22T09:16:54.959Z,10.40
2022-10-22T09:19:35.795Z,10.30
2022-10-22T09:22:23.733Z,10.10
2022-10-22T09:24:59.959Z,9.30
2022-10-22T09:27:32.653Z,10.10
2022-10-22T09:30:04.680Z,8.70
2022-10-22T09:32:36.134Z,9.50
2022-10-22T09:35:13.378Z,9.40
2022-10-22T09:37:52.551Z,9.60
2022-10-22T09:40:24.635Z,9.80
2022-10-22T09:42:56.044Z,10.20
2022-10-22T09:45:29.198Z,9.30
2022-10-22T09:48:13.939Z,9.30
2022-10-22T09:50:48.190Z,9.20
2022-10-22T09:53:23.501Z,10.20
2022-10-22T09:55:57.756Z,9.50
2022-10-22T09:58:30.102Z,10.00
2022-10-22T10:01:04.530Z,9.70
2022-10-22T10:03:35.923Z,9.50
2022-10-22T10:06:08.366Z,11.50
2022-10-22T10:08:40.066Z,10.90
2022-10-22T10:11:20.258Z,9.00
2022-10-22T10:13:59.447Z,10.80
2022-10-22T10:16:44.460Z,10.50
2022-10-22T10:19:38.928Z,10.60
2022-10-22T10:22:25.499Z,11.10
2022-10-22T10:25:29.032Z,11.00
2022-10-22T10:28:13.430Z,10.50
2022-10-22T10:30:53.422Z,11.40
2022-10-22T10:33:35.165Z,11.50
2022-10-22T10:36:18.003Z,11.10
2022-10-22T10:39:13.918Z,11.20
2022-10-22T10:41:57.566Z,12.50
2022-10-22T10:44:42.117Z,12.40
2022-10-22T10:47:46.875Z,12.60
2022-10-22T10:50:26.926Z,11.90
2022-10-22T10:53:12.348Z,12.00
2022-10-22T10:55:55.015Z,12.40
2022-10-22T10:58:35.830Z,12.00
2022-10-22T11:01:21.128Z,11.60
2022-10-22T11:04:08.504Z,11.10
2022-10-22T11:06:40.953Z,12.10
2022-10-22T11:09:25.893Z,11.20
2022-10-22T11:12:01.912Z,12.50
2022-10-22T11:14:41.337Z,12.80
2022-10-22T11:17:17.072Z,13.30
2022-10-22T11:19:59.897Z,13.40
2022-10-22T11:22:42.168Z,13.50
2022-10-22T11:25:23.293Z,14.50
2022-10-22T11:28:04.668Z,13.60
2022-10-22T11:30:41.977Z,14.10
2022-10-22T11:33:19.406Z,14.70
2022-10-22T11:42:20.452Z,14.40
2022-10-22T11:45:02.575Z,16.20
2022-10-22T11:47:36.553Z,15.20
2022-10-22T11:50:25.985Z,14.50
2022-10-22T11:53:05.271Z,16.00
2022-10-22T11:55:52.517Z,15.60
2022-10-22T11:58:33.269Z,15.40
2022-10-22T12:01:26.288Z,15.60
2022-10-22T12:04:21.407Z,15.40
2022-10-22T12:06:59.259Z,15.20
2022-10-22T12:09:34.398Z,15.40
2022-10-22T12:12:15.375Z,14.70
2022-10-22T12:14:59.364Z,14.60
2022-10-22T12:17:32.369Z,16.00
2022-10-22T12:20:08.849Z,14.70
2022-10-22T12:22:41.312Z,14.80
2022-10-22T12:25:22.145Z,14.30
2022-10-22T12:27:57.197Z,14.30
2022-10-22T12:30:31.487Z,13.10
2022-10-22T12:33:06.480Z,12.50
2022-10-22T12:35:52.010Z,12.40
2022-10-22T12:38:25.628Z,14.40
2022-10-22T12:40:59.222Z,13.30
2022-10-22T12:43:33.527Z,12.90
2022-10-22T12:46:05.365Z,12.20
2022-10-22T12:48:41.529Z,11.80
2022-10-22T12:51:20.229Z,11.00
2022-10-22T12:53:55.176Z,12.20
2022-10-22T12:56:30.037Z,12.60
2022-10-22T12:59:05.132Z,13.40
2022-10-22T13:01:39.910Z,14.80
2022-10-22T13:04:23.245Z,14.70
2022-10-22T13:07:08.164Z,13.80
2022-10-22T13:09:44.993Z,14.00
2022-10-22T13:12:25.528Z,14.60
2022-10-22T13:14:56.998Z,13.10
2022-10-22T13:17:44.037Z,13.80
2022-10-22T13:20:22.393Z,13.00
2022-10-22T13:23:00.433Z,12.30
2022-10-22T13:25:33.594Z,12.60
2022-10-22T13:28:19.666Z,13.40
2022-10-22T13:30:57.914Z,11.80
2022-10-22T13:33:33.461Z,12.40
2022-10-22T13:36:06.429Z,12.70
2022-10-22T13:38:38.019Z,12.40
2022-10-22T13:41:22.477Z,12.20
2022-10-22T13:43:55.241Z,12.70
2022-10-22T13:46:29.432Z,13.80
2022-10-22T13:49:01.564Z,13.60
2022-10-22T13:51:36.761Z,12.50
2022-10-22T13:54:16.329Z,12.30
2022-10-22T13:56:48.271Z,12.00
2022-10-22T13:59:22.863Z,11.90
2022-10-22T14:01:57.230Z,13.70
2022-10-22T14:04:28.760Z,13.80
2022-10-22T14:07:02.870Z,11.70
2022-10-22T14:09:35.782Z,12.00
2022-10-22T14:12:14.140Z,13.50
2022-10-22T14:14:45.714Z,12.50
2022-10-22T14:17:19.460Z,12.60
2022-10-22T14:19:51.975Z,13.50
2022-10-22T14:22:26.171Z,12.70
2022-10-22T14:24:57.721Z,12.60
2022-10-22T14:27:29.264Z,12.30
2022-10-22T14:30:00.698Z,12.30
2022-10-22T14:32:33.567Z,12.10
2022-10-22T14:35:05.348Z,12.10
2022-10-22T14:37:36.893Z,12.20
2022-10-22T14:40:13.446Z,12.30
2022-10-22T14:42:47.570Z,12.80
2022-10-22T14:45:23.140Z,12.30
2022-10-22T14:47:56.039Z,14.00
2022-10-22T14:50:28.004Z,13.60
2022-10-22T14:53:00.688Z,13.20
2022-10-22T14:55:32.604Z,13.20
2022-10-22T14:58:04.202Z,13.90
2022-10-22T15:00:36.909Z,13.20
2022-10-22T15:03:08.660Z,13.70
2022-10-22T15:05:44.857Z,13.80
2022-10-22T15:08:17.719Z,14.30
2022-10-22T15:10:57.935Z,14.40
2022-10-22T15:13:30.134Z,14.20
2022-10-22T15:16:03.052Z,15.80
2022-10-22T15:18:34.687Z,16.20
2022-10-22T15:21:09.125Z,14.60
2022-10-22T15:23:41.242Z,15.50
2022-10-22T15:26:14.075Z,16.20
2022-10-22T15:28:45.811Z,17.00
2022-10-22T15:31:38.368Z,16.50
2022-10-22T15:34:09.913Z,15.70
2022-10-22T15:36:41.469Z,18.20
2022-10-22T15:39:13.504Z,19.40
2022-10-22T15:41:45.043Z,17.80
2022-10-22T15:44:21.654Z,20.40
2022-10-22T15:46:54.881Z,18.20
2022-10-22T15:49:29.193Z,18.80
2022-10-22T15:52:00.723Z,18.00
2022-10-22T15:54:33.010Z,19.90
2022-10-22T15:57:08.687Z,18.80
2022-10-22T15:59:42.993Z,19.40
2022-10-22T16:02:15.983Z,19.10
2022-10-22T16:04:48.154Z,20.50
2022-10-22T16:07:22.538Z,19.50
2022-10-22T16:10:00.324Z,19.40
2022-10-22T16:12:32.754Z,19.90
2022-10-22T16:15:04.721Z,19.30
2022-10-22T16:17:36.471Z,19.50
2022-10-22T16:20:10.188Z,18.60
2022-10-22T16:25:12.780Z,19.90
2022-10-22T16:27:44.317Z,19.70
2022-10-22T16:30:16.576Z,18.70
2022-10-22T16:32:48.162Z,19.40
2022-10-22T16:35:19.826Z,19.90
2022-10-22T16:37:51.474Z,19.50
2022-10-22T16:40:23.755Z,22.60
2022-10-22T16:42:55.606Z,20.60
2022-10-22T16:45:27.283Z,21.00
2022-10-22T16:47:58.930Z,20.70
2022-10-22T16:50:30.783Z,21.30
2022-10-22T16:53:02.451Z,21.20
2022-10-22T16:55:38.922Z,21.10
2022-10-22T16:58:10.684Z,21.10
2022-10-22T17:00:42.458Z,21.50
2022-10-22T17:03:14.909Z,22.30
2022-10-22T17:05:47.601Z,24.20
2022-10-22T17:08:20.387Z,24.40
2022-10-22T17:10:52.153Z,24.80
2022-10-22T17:13:23.803Z,25.00
2022-10-22T17:16:01.811Z,26.00
2022-10-22T17:18:35.545Z,27.50
2022-10-22T17:21:09.402Z,27.80
2022-10-22T17:26:17.629Z,25.60
2022-10-22T17:28:50.746Z,26.60
2022-10-22T17:31:24.844Z,27.50
2022-10-22T17:34:00.226Z,26.00
2022-10-22T17:36:35.652Z,28.70
2022-10-22T17:39:09.356Z,27.50
2022-10-22T17:41:40.760Z,27.20
2022-10-22T17:44:16.814Z,27.50
2022-10-22T17:46:49.735Z,28.80
2022-10-22T17:49:22.540Z,25.50
2022-10-22T17:51:54.129Z,26.80
2022-10-22T17:54:25.677Z,26.50
2022-10-22T17:56:57.197Z,26.10
2022-10-22T17:59:28.751Z,25.40
2022-10-22T18:02:02.295Z,29.20
2022-10-22T18:04:35.342Z,29.70
2022-10-22T18:07:06.868Z,31.80
2022-10-22T18:09:40.139Z,31.20
2022-10-22T18:12:13.708Z,31.00
2022-10-22T18:14:46.404Z,26.70
2022-10-22T18:17:17.895Z,27.80
2022-10-22T18:19:50.731Z,27.90
2022-10-22T18:22:22.227Z,28.90
2022-10-22T18:24:53.733Z,30.20
2022-10-22T18:27:25.368Z,30.30
2022-10-22T18:29:56.865Z,29.00
2022-10-22T18:32:28.362Z,31.10
2022-10-22T18:34:59.861Z,28.90
2022-10-22T18:37:31.961Z,29.20
2022-10-22T18:40:03.430Z,28.40
2022-10-22T18:42:39.755Z,28.60
2022-10-22T18:45:13.007Z,28.80
2022-10-22T18:47:44.819Z,33.50
2022-10-22T18:50:16.488Z,28.70
2022-10-22T18:52:47.992Z,25.20
2022-10-22T18:55:19.577Z,26.40
2022-10-22T18:57:51.094Z,24.60
2022-10-22T19:00:22.809Z,25.60
2022-10-22T19:02:54.927Z,25.80
2022-10-22T19:05:26.471Z,26.30
2022-10-22T19:07:57.947Z,27.80
2022-10-22T19:10:29.340Z,28.90
2022-10-22T19:13:00.724Z,29.00
2022-10-22T19:15:32.458Z,31.30
2022-10-22T19:18:04.055Z,29.40
2022-10-22T19:20:35.837Z,30.90
2022-10-22T19:23:08.321Z,31.70
2022-10-22T19:25:40.107Z,30.30
2022-10-22T19:28:11.554Z,29.10
2022-10-22T19:30:44.718Z,28.30
2022-10-22T19:33:16.134Z,29.20
2022-10-22T19:35:47.734Z,25.70
2022-10-22T19:38:19.257Z,28.40
2022-10-22T19:40:51.347Z,27.20
2022-10-22T19:43:23.779Z,25.50
2022-10-22T19:45:55.196Z,24.50
2022-10-22T19:48:28.697Z,24.90
2022-10-22T19:51:04.958Z,24.30
2022-10-22T19:53:37.923Z,24.70
2022-10-22T19:56:12.152Z,24.10
2022-10-22T19:58:43.688Z,24.30
2022-10-22T20:01:17.563Z,23.60
2022-10-22T20:03:50.778Z,25.40
2022-10-22T20:06:22.982Z,24.10
2022-10-22T20:08:56.144Z,24.20
2022-10-22T20:11:30.156Z,23.90
2022-10-22T20:14:02.297Z,23.10
2022-10-22T20:16:36.360Z,24.50
2022-10-22T20:19:11.117Z,24.30
2022-10-22T20:21:43.309Z,23.70
2022-10-22T20:24:15.250Z,24.10
2022-10-22T20:26:49.070Z,23.80
2022-10-22T20:29:20.637Z,23.00
2022-10-22T20:31:52.323Z,24.60
2022-10-22T20:34:23.695Z,24.70
2022-10-22T20:36:55.250Z,24.80
2022-10-22T20:39:26.809Z,23.20
2022-10-22T20:41:58.364Z,22.90
2022-10-22T20:44:30.362Z,24.10
2022-10-22T20:47:01.795Z,22.90
2022-10-22T20:49:33.890Z,22.50
2022-10-22T20:52:05.413Z,23.10
2022-10-22T20:54:41.386Z,22.40
2022-10-22T20:57:14.316Z,24.40
2022-10-22T20:59:46.341Z,24.80
2022-10-22T21:02:18.309Z,23.90
2022-10-22T21:04:49.710Z,24.80
2022-10-22T21:07:21.106Z,24.70
2022-10-22T21:09:52.553Z,25.00
2022-10-22T21:12:24.095Z,25.30
2022-10-22T21:14:55.627Z,23.80
2022-10-22T21:17:27.117Z,24.10
2022-10-22T21:19:58.735Z,24.50
2022-10-22T21:22:30.340Z,26.20
2022-10-22T21:25:01.735Z,28.10
2022-10-22T21:27:33.207Z,28.30
2022-10-22T21:30:05.514Z,27.00
2022-10-22T21:32:36.960Z,26.40
2022-10-22T21:35:09.592Z,25.90
2022-10-22T21:37:41.210Z,27.30
2022-10-22T21:40:14.903Z,27.60
2022-10-22T21:42:46.544Z,26.90
2022-10-22T21:45:22.109Z,26.70
2022-10-22T21:47:54.092Z,27.60
2022-10-22T21:50:25.524Z,30.00
2022-10-22T21:52:56.954Z,29.60
2022-10-22T21:55:30.428Z,27.70
2022-10-22T21:58:01.867Z,28.00
2022-10-22T22:00:33.465Z,27.10
2022-10-22T22:03:07.882Z,26.10
2022-10-22T22:05:39.827Z,26.10
2022-10-22T22:08:11.263Z,24.30
2022-10-22T22:10:43.439Z,24.30
2022-10-22T22:13:17.833Z,22.90
2022-10-22T22:15:49.213Z,23.20
2022-10-22T22:18:21.520Z,25.00
2022-10-22T22:20:52.961Z,23.50
2022-10-22T22:23:24.428Z,23.30
2022-10-22T22:25:59.096Z,24.00
2022-10-22T22:28:32.217Z,21.50
2022-10-22T22:31:13.026Z,21.00
2022-10-22T22:33:45.008Z,20.20
2022-10-22T22:36:16.574Z,20.70
2022-10-22T22:38:48.119Z,21.30
2022-10-22T22:41:19.521Z,21.00
2022-10-22T22:43:51.023Z,22.20
2022-10-22T22:46:22.521Z,22.30
2022-10-22T22:48:53.935Z,21.90
2022-10-22T22:51:25.673Z,22.20
2022-10-22T22:53:57.811Z,21.90
2022-10-22T22:56:31.481Z,22.30
2022-10-22T23:01:35.329Z,21.60
2022-10-22T23:04:13.512Z,21.70
2022-10-22T23:06:45.228Z,21.20
2022-10-22T23:11:55.350Z,22.70
2022-10-22T23:14:26.756Z,22.40
2022-10-22T23:16:58.134Z,20.80
2022-10-22T23:19:29.584Z,20.10
2022-10-22T23:22:00.963Z,20.60
2022-10-22T23:24:32.566Z,21.00
2022-10-22T23:27:05.565Z,20.60
2022-10-22T23:29:37.448Z,20.50
2022-10-22T23:32:15.217Z,20.50
2022-10-22T23:34:46.585Z,19.30
2022-10-22T23:37:18.036Z,21.10
2022-10-22T23:39:49.485Z,19.30
2022-10-22T23:42:20.899Z,19.60
2022-10-22T23:44:52.337Z,18.70
2022-10-22T23:47:23.871Z,18.70
2022-10-22T23:49:55.237Z,18.50
2022-10-22T23:52:27.983Z,19.70
2022-10-22T23:54:59.409Z,17.70
2022-10-22T23:57:30.811Z,18.90
